sensor_id;sensor_type;location;lat;lon;timestamp;P1;durP1;ratioP1;P2;durP2;ratioP2
8104;SDS011;4095;48.942;9.104;2022-07-10T00:00:24;6.73;;;4.93;;
8104;SDS011;4095;48.942;9.104;2022-07-10T00:02:51;5.47;;;4.97;;
8104;SDS011;4095;48.942;9.104;2022-07-10T00:05:20;5.27;;;4.87;;
8104;SDS011;4095;48.942;9.104;2022-07-10T00:07:46;5.50;;;5.00;;
8104;SDS011;4095;48.942;9.104;2022-07-10T00:10:12;5.53;;;5.10;;
8104;SDS011;4095;48.942;9.104;2022-07-10T00:12:38;5.63;;;5.13;;
8104;SDS011;4095;48.942;9.104;2022-07-10T00:15:04;6.10;;;5.57;;
8104;SDS011;4095;48.942;9.104;2022-07-10T00:17:30;6.00;;;5.40;;
8104;SDS011;4095;48.942;9.104;2022-07-10T00:19:56;5.90;;;5.30;;
8104;SDS011;4095;48.942;9.104;2022-07-10T00:22:22;5.97;;;5.47;;
8104;SDS011;4095;48.942;9.104;2022-07-10T00:24:47;6.10;;;5.60;;
8104;SDS011;4095;48.942;9.104;2022-07-10T00:27:15;5.93;;;5.13;;
8104;SDS011;4095;48.942;9.104;2022-07-10T00:29:41;5.30;;;4.80;;
8104;SDS011;4095;48.942;9.104;2022-07-10T00:32:07;7.17;;;6.07;;
8104;SDS011;4095;48.942;9.104;2022-07-10T00:34:33;6.07;;;5.57;;
8104;SDS011;4095;48.942;9.104;2022-07-10T00:37:00;5.87;;;5.37;;
8104;SDS011;4095;48.942;9.104;2022-07-10T00:39:25;5.30;;;4.90;;
8104;SDS011;4095;48.942;9.104;2022-07-10T00:41:51;5.87;;;5.37;;
8104;SDS011;4095;48.942;9.104;2022-07-10T00:44:17;5.73;;;5.13;;
8104;SDS011;4095;48.942;9.104;2022-07-10T00:46:42;5.67;;;5.17;;
8104;SDS011;4095;48.942;9.104;2022-07-10T00:49:08;6.70;;;5.07;;
8104;SDS011;4095;48.942;9.104;2022-07-10T00:51:33;6.73;;;5.37;;
8104;SDS011;4095;48.942;9.104;2022-07-10T00:53:59;5.47;;;4.97;;
8104;SDS011;4095;48.942;9.104;2022-07-10T00:56:26;6.93;;;5.03;;
8104;SDS011;4095;48.942;9.104;2022-07-10T00:58:53;5.67;;;4.80;;
8104;SDS011;4095;48.942;9.104;2022-07-10T01:01:19;6.00;;;5.20;;
8104;SDS011;4095;48.942;9.104;2022-07-10T01:03:47;6.67;;;5.13;;
8104;SDS011;4095;48.942;9.104;2022-07-10T01:06:13;5.10;;;4.60;;
8104;SDS011;4095;48.942;9.104;2022-07-10T01:08:40;5.43;;;4.93;;
8104;SDS011;4095;48.942;9.104;2022-07-10T01:11:07;7.57;;;5.03;;
8104;SDS011;4095;48.942;9.104;2022-07-10T01:13:33;6.17;;;4.93;;
8104;SDS011;4095;48.942;9.104;2022-07-10T01:15:59;6.47;;;4.80;;
8104;SDS011;4095;48.942;9.104;2022-07-10T01:18:25;5.90;;;5.40;;
8104;SDS011;4095;48.942;9.104;2022-07-10T01:20:54;7.00;;;5.40;;
8104;SDS011;4095;48.942;9.104;2022-07-10T01:23:20;5.90;;;5.30;;
8104;SDS011;4095;48.942;9.104;2022-07-10T01:25:47;5.97;;;5.00;;
8104;SDS011;4095;48.942;9.104;2022-07-10T01:28:13;6.73;;;5.47;;
8104;SDS011;4095;48.942;9.104;2022-07-10T01:30:39;7.20;;;5.60;;
8104;SDS011;4095;48.942;9.104;2022-07-10T01:33:05;6.00;;;5.50;;
8104;SDS011;4095;48.942;9.104;2022-07-10T01:35:30;6.27;;;5.67;;
8104;SDS011;4095;48.942;9.104;2022-07-10T01:37:56;6.00;;;5.50;;
8104;SDS011;4095;48.942;9.104;2022-07-10T01:40:21;6.50;;;5.93;;
8104;SDS011;4095;48.942;9.104;2022-07-10T01:42:47;6.00;;;5.40;;
8104;SDS011;4095;48.942;9.104;2022-07-10T01:45:13;6.40;;;5.80;;
8104;SDS011;4095;48.942;9.104;2022-07-10T01:47:42;6.90;;;5.80;;
8104;SDS011;4095;48.942;9.104;2022-07-10T01:50:09;6.67;;;6.07;;
8104;SDS011;4095;48.942;9.104;2022-07-10T01:52:35;6.27;;;5.67;;
8104;SDS011;4095;48.942;9.104;2022-07-10T01:55:01;6.07;;;5.53;;
8104;SDS011;4095;48.942;9.104;2022-07-10T01:57:27;6.40;;;5.63;;
8104;SDS011;4095;48.942;9.104;2022-07-10T01:59:52;6.63;;;5.93;;
8104;SDS011;4095;48.942;9.104;2022-07-10T02:02:18;6.80;;;5.93;;
8104;SDS011;4095;48.942;9.104;2022-07-10T02:04:44;7.00;;;6.03;;
8104;SDS011;4095;48.942;9.104;2022-07-10T02:07:11;7.77;;;7.07;;
8104;SDS011;4095;48.942;9.104;2022-07-10T02:09:38;8.07;;;7.10;;
8104;SDS011;4095;48.942;9.104;2022-07-10T02:12:04;9.30;;;8.47;;
8104;SDS011;4095;48.942;9.104;2022-07-10T02:14:31;8.87;;;8.17;;
8104;SDS011;4095;48.942;9.104;2022-07-10T02:16:57;9.80;;;8.90;;
8104;SDS011;4095;48.942;9.104;2022-07-10T02:19:23;10.80;;;9.73;;
8104;SDS011;4095;48.942;9.104;2022-07-10T02:21:48;10.67;;;9.67;;
8104;SDS011;4095;48.942;9.104;2022-07-10T02:24:14;10.30;;;9.40;;
8104;SDS011;4095;48.942;9.104;2022-07-10T02:26:40;11.53;;;10.53;;
8104;SDS011;4095;48.942;9.104;2022-07-10T02:29:05;11.27;;;10.07;;
8104;SDS011;4095;48.942;9.104;2022-07-10T02:31:31;10.97;;;10.07;;
8104;SDS011;4095;48.942;9.104;2022-07-10T02:33:59;10.40;;;9.40;;
8104;SDS011;4095;48.942;9.104;2022-07-10T02:36:25;11.17;;;10.27;;
8104;SDS011;4095;48.942;9.104;2022-07-10T02:38:51;11.53;;;10.30;;
8104;SDS011;4095;48.942;9.104;2022-07-10T02:41:16;10.50;;;9.50;;
8104;SDS011;4095;48.942;9.104;2022-07-10T02:43:42;11.67;;;10.50;;
8104;SDS011;4095;48.942;9.104;2022-07-10T02:46:08;10.40;;;9.40;;
8104;SDS011;4095;48.942;9.104;2022-07-10T02:48:34;11.40;;;10.37;;
8104;SDS011;4095;48.942;9.104;2022-07-10T02:50:59;10.83;;;9.77;;
8104;SDS011;4095;48.942;9.104;2022-07-10T02:53:25;11.20;;;10.20;;
8104;SDS011;4095;48.942;9.104;2022-07-10T02:55:50;10.60;;;9.63;;
8104;SDS011;4095;48.942;9.104;2022-07-10T02:58:16;10.80;;;9.80;;
8104;SDS011;4095;48.942;9.104;2022-07-10T03:00:42;11.87;;;9.57;;
8104;SDS011;4095;48.942;9.104;2022-07-10T03:03:08;10.70;;;9.30;;
8104;SDS011;4095;48.942;9.104;2022-07-10T03:05:34;9.63;;;8.73;;
8104;SDS011;4095;48.942;9.104;2022-07-10T03:08:00;11.13;;;8.63;;
8104;SDS011;4095;48.942;9.104;2022-07-10T03:10:25;9.17;;;8.23;;
8104;SDS011;4095;48.942;9.104;2022-07-10T03:12:51;8.43;;;7.70;;
8104;SDS011;4095;48.942;9.104;2022-07-10T03:15:16;9.63;;;8.73;;
8104;SDS011;4095;48.942;9.104;2022-07-10T03:17:42;9.17;;;8.27;;
8104;SDS011;4095;48.942;9.104;2022-07-10T03:20:08;9.10;;;8.20;;
8104;SDS011;4095;48.942;9.104;2022-07-10T03:22:34;9.57;;;8.67;;
8104;SDS011;4095;48.942;9.104;2022-07-10T03:25:00;9.97;;;8.20;;
8104;SDS011;4095;48.942;9.104;2022-07-10T03:27:26;9.23;;;8.33;;
8104;SDS011;4095;48.942;9.104;2022-07-10T03:29:52;10.47;;;8.03;;
8104;SDS011;4095;48.942;9.104;2022-07-10T03:32:17;8.27;;;7.47;;
8104;SDS011;4095;48.942;9.104;2022-07-10T03:34:43;9.53;;;7.73;;
8104;SDS011;4095;48.942;9.104;2022-07-10T03:37:08;8.73;;;7.73;;
8104;SDS011;4095;48.942;9.104;2022-07-10T03:39:34;8.53;;;7.73;;
8104;SDS011;4095;48.942;9.104;2022-07-10T03:42:00;8.83;;;7.80;;
8104;SDS011;4095;48.942;9.104;2022-07-10T03:44:25;9.10;;;8.30;;
8104;SDS011;4095;48.942;9.104;2022-07-10T03:46:51;9.60;;;8.33;;
8104;SDS011;4095;48.942;9.104;2022-07-10T03:49:17;10.00;;;8.70;;
8104;SDS011;4095;48.942;9.104;2022-07-10T03:51:43;11.50;;;8.93;;
8104;SDS011;4095;48.942;9.104;2022-07-10T03:54:08;11.70;;;9.17;;
8104;SDS011;4095;48.942;9.104;2022-07-10T03:56:34;10.50;;;9.03;;
8104;SDS011;4095;48.942;9.104;2022-07-10T03:59:18;10.90;;;8.93;;
8104;SDS011;4095;48.942;9.104;2022-07-10T04:01:43;9.83;;;8.90;;
8104;SDS011;4095;48.942;9.104;2022-07-10T04:04:09;11.13;;;8.77;;
8104;SDS011;4095;48.942;9.104;2022-07-10T04:06:35;10.27;;;9.07;;
8104;SDS011;4095;48.942;9.104;2022-07-10T04:09:03;9.43;;;8.50;;
8104;SDS011;4095;48.942;9.104;2022-07-10T04:11:29;11.40;;;8.53;;
8104;SDS011;4095;48.942;9.104;2022-07-10T04:13:55;10.87;;;8.23;;
8104;SDS011;4095;48.942;9.104;2022-07-10T04:16:21;8.27;;;7.50;;
8104;SDS011;4095;48.942;9.104;2022-07-10T04:18:47;9.97;;;8.00;;
8104;SDS011;4095;48.942;9.104;2022-07-10T04:21:13;8.00;;;7.20;;
8104;SDS011;4095;48.942;9.104;2022-07-10T04:23:39;7.83;;;7.13;;
8104;SDS011;4095;48.942;9.104;2022-07-10T04:26:04;5.87;;;5.37;;
8104;SDS011;4095;48.942;9.104;2022-07-10T04:28:30;7.57;;;5.93;;
8104;SDS011;4095;48.942;9.104;2022-07-10T04:30:55;8.07;;;5.50;;
8104;SDS011;4095;48.942;9.104;2022-07-10T04:33:21;5.50;;;5.00;;
8104;SDS011;4095;48.942;9.104;2022-07-10T04:35:47;5.13;;;4.63;;
8104;SDS011;4095;48.942;9.104;2022-07-10T04:38:12;7.73;;;4.53;;
8104;SDS011;4095;48.942;9.104;2022-07-10T04:40:38;5.23;;;4.07;;
8104;SDS011;4095;48.942;9.104;2022-07-10T04:43:04;6.33;;;4.33;;
8104;SDS011;4095;48.942;9.104;2022-07-10T04:45:29;5.67;;;3.67;;
8104;SDS011;4095;48.942;9.104;2022-07-10T04:47:55;5.87;;;3.60;;
8104;SDS011;4095;48.942;9.104;2022-07-10T04:50:21;4.83;;;3.73;;
8104;SDS011;4095;48.942;9.104;2022-07-10T04:52:46;4.17;;;3.13;;
8104;SDS011;4095;48.942;9.104;2022-07-10T04:55:12;3.90;;;3.03;;
8104;SDS011;4095;48.942;9.104;2022-07-10T04:57:37;4.43;;;3.07;;
8104;SDS011;4095;48.942;9.104;2022-07-10T05:00:04;3.93;;;3.37;;
8104;SDS011;4095;48.942;9.104;2022-07-10T05:02:30;3.67;;;3.30;;
8104;SDS011;4095;48.942;9.104;2022-07-10T05:04:56;4.07;;;3.23;;
8104;SDS011;4095;48.942;9.104;2022-07-10T05:07:21;4.80;;;3.30;;
8104;SDS011;4095;48.942;9.104;2022-07-10T05:09:47;4.90;;;3.10;;
8104;SDS011;4095;48.942;9.104;2022-07-10T05:12:12;4.67;;;3.43;;
8104;SDS011;4095;48.942;9.104;2022-07-10T05:14:38;3.60;;;3.27;;
8104;SDS011;4095;48.942;9.104;2022-07-10T05:17:03;4.73;;;3.00;;
8104;SDS011;4095;48.942;9.104;2022-07-10T05:19:29;4.80;;;3.40;;
8104;SDS011;4095;48.942;9.104;2022-07-10T05:21:55;5.27;;;3.20;;
8104;SDS011;4095;48.942;9.104;2022-07-10T05:24:20;4.87;;;3.07;;
8104;SDS011;4095;48.942;9.104;2022-07-10T05:26:46;3.70;;;3.17;;
8104;SDS011;4095;48.942;9.104;2022-07-10T05:29:11;5.83;;;3.13;;
8104;SDS011;4095;48.942;9.104;2022-07-10T05:31:37;4.40;;;2.90;;
8104;SDS011;4095;48.942;9.104;2022-07-10T05:34:02;4.63;;;3.10;;
8104;SDS011;4095;48.942;9.104;2022-07-10T05:36:28;3.20;;;2.80;;
8104;SDS011;4095;48.942;9.104;2022-07-10T05:38:54;2.93;;;2.53;;
8104;SDS011;4095;48.942;9.104;2022-07-10T05:41:19;4.37;;;2.70;;
8104;SDS011;4095;48.942;9.104;2022-07-10T05:43:45;3.17;;;2.60;;
8104;SDS011;4095;48.942;9.104;2022-07-10T05:46:10;3.47;;;2.33;;
8104;SDS011;4095;48.942;9.104;2022-07-10T05:48:36;3.87;;;2.60;;
8104;SDS011;4095;48.942;9.104;2022-07-10T05:51:03;3.73;;;2.40;;
8104;SDS011;4095;48.942;9.104;2022-07-10T05:53:29;4.23;;;2.40;;
8104;SDS011;4095;48.942;9.104;2022-07-10T05:55:54;2.67;;;2.23;;
8104;SDS011;4095;48.942;9.104;2022-07-10T05:58:24;2.93;;;2.00;;
8104;SDS011;4095;48.942;9.104;2022-07-10T06:00:50;4.57;;;2.10;;
8104;SDS011;4095;48.942;9.104;2022-07-10T06:03:15;3.20;;;2.07;;
8104;SDS011;4095;48.942;9.104;2022-07-10T06:05:41;4.27;;;2.30;;
8104;SDS011;4095;48.942;9.104;2022-07-10T06:08:07;2.43;;;1.90;;
8104;SDS011;4095;48.942;9.104;2022-07-10T06:10:33;4.20;;;2.60;;
8104;SDS011;4095;48.942;9.104;2022-07-10T06:12:58;4.43;;;2.37;;
8104;SDS011;4095;48.942;9.104;2022-07-10T06:15:24;4.17;;;2.23;;
8104;SDS011;4095;48.942;9.104;2022-07-10T06:17:49;4.67;;;2.40;;
8104;SDS011;4095;48.942;9.104;2022-07-10T06:20:15;4.27;;;2.27;;
8104;SDS011;4095;48.942;9.104;2022-07-10T06:22:41;4.83;;;2.03;;
8104;SDS011;4095;48.942;9.104;2022-07-10T06:25:07;4.40;;;2.37;;
8104;SDS011;4095;48.942;9.104;2022-07-10T06:27:33;4.27;;;1.90;;
8104;SDS011;4095;48.942;9.104;2022-07-10T06:30:00;2.67;;;1.83;;
8104;SDS011;4095;48.942;9.104;2022-07-10T06:32:26;3.03;;;2.20;;
8104;SDS011;4095;48.942;9.104;2022-07-10T06:34:55;5.00;;;2.47;;
8104;SDS011;4095;48.942;9.104;2022-07-10T06:37:21;3.60;;;1.90;;
8104;SDS011;4095;48.942;9.104;2022-07-10T06:39:47;3.07;;;2.07;;
8104;SDS011;4095;48.942;9.104;2022-07-10T06:42:13;3.80;;;2.20;;
8104;SDS011;4095;48.942;9.104;2022-07-10T06:44:39;3.83;;;2.17;;
8104;SDS011;4095;48.942;9.104;2022-07-10T06:47:09;4.07;;;2.00;;
8104;SDS011;4095;48.942;9.104;2022-07-10T06:49:54;4.70;;;2.13;;
8104;SDS011;4095;48.942;9.104;2022-07-10T06:52:20;4.13;;;2.13;;
8104;SDS011;4095;48.942;9.104;2022-07-10T06:54:46;2.77;;;1.87;;
8104;SDS011;4095;48.942;9.104;2022-07-10T06:57:12;4.00;;;1.90;;
8104;SDS011;4095;48.942;9.104;2022-07-10T06:59:38;3.07;;;2.00;;
8104;SDS011;4095;48.942;9.104;2022-07-10T07:02:04;3.87;;;1.90;;
8104;SDS011;4095;48.942;9.104;2022-07-10T07:04:29;3.97;;;1.83;;
8104;SDS011;4095;48.942;9.104;2022-07-10T07:06:55;3.33;;;1.93;;
8104;SDS011;4095;48.942;9.104;2022-07-10T07:09:21;3.17;;;1.90;;
8104;SDS011;4095;48.942;9.104;2022-07-10T07:11:46;3.30;;;1.83;;
8104;SDS011;4095;48.942;9.104;2022-07-10T07:14:12;4.47;;;2.30;;
8104;SDS011;4095;48.942;9.104;2022-07-10T07:16:38;3.10;;;2.00;;
8104;SDS011;4095;48.942;9.104;2022-07-10T07:19:07;3.60;;;1.77;;
8104;SDS011;4095;48.942;9.104;2022-07-10T07:21:33;3.93;;;1.80;;
8104;SDS011;4095;48.942;9.104;2022-07-10T07:24:17;3.30;;;2.00;;
8104;SDS011;4095;48.942;9.104;2022-07-10T07:26:46;2.70;;;1.80;;
8104;SDS011;4095;48.942;9.104;2022-07-10T07:29:15;2.30;;;1.80;;
8104;SDS011;4095;48.942;9.104;2022-07-10T07:31:41;4.33;;;1.73;;
8104;SDS011;4095;48.942;9.104;2022-07-10T07:34:07;6.77;;;2.00;;
8104;SDS011;4095;48.942;9.104;2022-07-10T07:36:33;2.30;;;1.50;;
8104;SDS011;4095;48.942;9.104;2022-07-10T07:38:58;3.70;;;1.53;;
8104;SDS011;4095;48.942;9.104;2022-07-10T07:41:24;2.60;;;1.57;;
8104;SDS011;4095;48.942;9.104;2022-07-10T07:43:50;2.60;;;1.67;;
8104;SDS011;4095;48.942;9.104;2022-07-10T07:46:17;3.57;;;1.73;;
8104;SDS011;4095;48.942;9.104;2022-07-10T07:48:43;5.90;;;1.53;;
8104;SDS011;4095;48.942;9.104;2022-07-10T07:51:09;3.80;;;1.83;;
8104;SDS011;4095;48.942;9.104;2022-07-10T07:53:35;2.80;;;1.40;;
8104;SDS011;4095;48.942;9.104;2022-07-10T07:56:00;3.03;;;1.50;;
8104;SDS011;4095;48.942;9.104;2022-07-10T07:58:26;2.87;;;1.60;;
8104;SDS011;4095;48.942;9.104;2022-07-10T08:00:51;2.60;;;1.50;;
8104;SDS011;4095;48.942;9.104;2022-07-10T08:03:17;2.93;;;1.50;;
8104;SDS011;4095;48.942;9.104;2022-07-10T08:05:43;2.90;;;1.50;;
8104;SDS011;4095;48.942;9.104;2022-07-10T08:08:09;3.43;;;1.70;;
8104;SDS011;4095;48.942;9.104;2022-07-10T08:10:35;3.37;;;1.60;;
8104;SDS011;4095;48.942;9.104;2022-07-10T08:13:01;2.03;;;1.20;;
8104;SDS011;4095;48.942;9.104;2022-07-10T08:15:28;2.60;;;1.77;;
8104;SDS011;4095;48.942;9.104;2022-07-10T08:17:55;3.93;;;1.50;;
8104;SDS011;4095;48.942;9.104;2022-07-10T08:20:22;2.40;;;1.47;;
8104;SDS011;4095;48.942;9.104;2022-07-10T08:22:49;4.27;;;1.43;;
8104;SDS011;4095;48.942;9.104;2022-07-10T08:25:16;3.50;;;1.30;;
8104;SDS011;4095;48.942;9.104;2022-07-10T08:27:42;1.87;;;1.10;;
8104;SDS011;4095;48.942;9.104;2022-07-10T08:30:08;2.23;;;1.13;;
8104;SDS011;4095;48.942;9.104;2022-07-10T08:32:34;2.97;;;1.40;;
8104;SDS011;4095;48.942;9.104;2022-07-10T08:35:01;3.07;;;1.50;;
8104;SDS011;4095;48.942;9.104;2022-07-10T08:37:27;1.73;;;1.03;;
8104;SDS011;4095;48.942;9.104;2022-07-10T08:39:53;2.73;;;1.50;;
8104;SDS011;4095;48.942;9.104;2022-07-10T08:42:19;2.00;;;1.20;;
8104;SDS011;4095;48.942;9.104;2022-07-10T08:44:46;2.63;;;1.47;;
8104;SDS011;4095;48.942;9.104;2022-07-10T08:47:12;3.27;;;1.13;;
8104;SDS011;4095;48.942;9.104;2022-07-10T08:49:38;3.13;;;1.37;;
8104;SDS011;4095;48.942;9.104;2022-07-10T08:52:13;4.00;;;1.27;;
8104;SDS011;4095;48.942;9.104;2022-07-10T08:54:46;2.33;;;1.23;;
8104;SDS011;4095;48.942;9.104;2022-07-10T08:57:12;2.67;;;1.30;;
8104;SDS011;4095;48.942;9.104;2022-07-10T08:59:40;1.90;;;1.20;;
8104;SDS011;4095;48.942;9.104;2022-07-10T09:02:05;4.67;;;1.80;;
8104;SDS011;4095;48.942;9.104;2022-07-10T09:04:31;3.33;;;1.20;;
8104;SDS011;4095;48.942;9.104;2022-07-10T09:06:57;1.93;;;1.20;;
8104;SDS011;4095;48.942;9.104;2022-07-10T09:09:22;2.80;;;1.30;;
8104;SDS011;4095;48.942;9.104;2022-07-10T09:11:49;2.23;;;1.30;;
8104;SDS011;4095;48.942;9.104;2022-07-10T09:14:25;2.33;;;1.30;;
8104;SDS011;4095;48.942;9.104;2022-07-10T09:16:53;4.17;;;1.20;;
8104;SDS011;4095;48.942;9.104;2022-07-10T09:19:25;3.47;;;1.30;;
8104;SDS011;4095;48.942;9.104;2022-07-10T09:24:34;3.40;;;1.40;;
8104;SDS011;4095;48.942;9.104;2022-07-10T09:27:13;2.57;;;1.33;;
8104;SDS011;4095;48.942;9.104;2022-07-10T09:32:20;2.60;;;1.20;;
8104;SDS011;4095;48.942;9.104;2022-07-10T09:34:50;3.23;;;1.37;;
8104;SDS011;4095;48.942;9.104;2022-07-10T09:37:36;2.87;;;1.23;;
8104;SDS011;4095;48.942;9.104;2022-07-10T09:40:04;4.10;;;1.60;;
8104;SDS011;4095;48.942;9.104;2022-07-10T09:47:35;2.90;;;1.40;;
8104;SDS011;4095;48.942;9.104;2022-07-10T09:50:01;3.97;;;1.30;;
8104;SDS011;4095;48.942;9.104;2022-07-10T09:52:28;3.80;;;1.37;;
8104;SDS011;4095;48.942;9.104;2022-07-10T09:54:54;2.83;;;1.27;;
8104;SDS011;4095;48.942;9.104;2022-07-10T09:57:24;2.37;;;1.10;;
8104;SDS011;4095;48.942;9.104;2022-07-10T09:59:55;1.93;;;1.10;;
8104;SDS011;4095;48.942;9.104;2022-07-10T10:02:21;2.10;;;1.13;;
8104;SDS011;4095;48.942;9.104;2022-07-10T10:04:48;3.93;;;1.33;;
8104;SDS011;4095;48.942;9.104;2022-07-10T10:07:16;3.73;;;1.53;;
8104;SDS011;4095;48.942;9.104;2022-07-10T10:09:48;2.97;;;1.23;;
8104;SDS011;4095;48.942;9.104;2022-07-10T10:12:42;2.57;;;1.13;;
8104;SDS011;4095;48.942;9.104;2022-07-10T10:15:12;2.37;;;1.47;;
8104;SDS011;4095;48.942;9.104;2022-07-10T10:17:40;2.33;;;1.60;;
8104;SDS011;4095;48.942;9.104;2022-07-10T10:20:06;3.17;;;1.50;;
8104;SDS011;4095;48.942;9.104;2022-07-10T10:22:52;2.17;;;1.03;;
8104;SDS011;4095;48.942;9.104;2022-07-10T10:25:20;1.80;;;1.13;;
8104;SDS011;4095;48.942;9.104;2022-07-10T10:27:47;2.57;;;1.50;;
8104;SDS011;4095;48.942;9.104;2022-07-10T10:30:13;2.70;;;1.47;;
8104;SDS011;4095;48.942;9.104;2022-07-10T10:32:42;2.70;;;1.40;;
8104;SDS011;4095;48.942;9.104;2022-07-10T10:35:07;2.57;;;1.10;;
8104;SDS011;4095;48.942;9.104;2022-07-10T10:37:39;2.57;;;1.20;;
8104;SDS011;4095;48.942;9.104;2022-07-10T10:40:10;2.63;;;1.30;;
8104;SDS011;4095;48.942;9.104;2022-07-10T10:42:54;2.17;;;1.05;;
8104;SDS011;4095;48.942;9.104;2022-07-10T10:47:59;2.80;;;1.33;;
8104;SDS011;4095;48.942;9.104;2022-07-10T10:50:42;3.10;;;1.38;;
8104;SDS011;4095;48.942;9.104;2022-07-10T10:53:21;3.38;;;1.35;;
8104;SDS011;4095;48.942;9.104;2022-07-10T10:58:46;3.30;;;1.20;;
8104;SDS011;4095;48.942;9.104;2022-07-10T11:11:59;2.70;;;1.10;;
8104;SDS011;4095;48.942;9.104;2022-07-10T11:14:40;2.63;;;1.30;;
8104;SDS011;4095;48.942;9.104;2022-07-10T11:17:11;2.10;;;1.05;;
8104;SDS011;4095;48.942;9.104;2022-07-10T11:19:38;3.95;;;1.15;;
8104;SDS011;4095;48.942;9.104;2022-07-10T11:25:03;4.47;;;1.45;;
8104;SDS011;4095;48.942;9.104;2022-07-10T11:30:29;3.22;;;1.30;;
8104;SDS011;4095;48.942;9.104;2022-07-10T11:33:11;2.08;;;1.00;;
8104;SDS011;4095;48.942;9.104;2022-07-10T11:35:38;2.53;;;1.13;;
8104;SDS011;4095;48.942;9.104;2022-07-10T11:38:05;1.55;;;0.85;;
8104;SDS011;4095;48.942;9.104;2022-07-10T11:40:30;2.33;;;1.10;;
8104;SDS011;4095;48.942;9.104;2022-07-10T11:43:01;3.20;;;0.90;;
8104;SDS011;4095;48.942;9.104;2022-07-10T11:45:31;1.98;;;1.00;;
8104;SDS011;4095;48.942;9.104;2022-07-10T11:47:58;2.20;;;1.23;;
8104;SDS011;4095;48.942;9.104;2022-07-10T11:50:26;2.13;;;1.05;;
8104;SDS011;4095;48.942;9.104;2022-07-10T11:52:53;2.67;;;1.10;;
8104;SDS011;4095;48.942;9.104;2022-07-10T11:55:21;1.67;;;1.00;;
8104;SDS011;4095;48.942;9.104;2022-07-10T11:57:47;1.98;;;0.98;;
8104;SDS011;4095;48.942;9.104;2022-07-10T12:00:27;2.20;;;1.17;;
8104;SDS011;4095;48.942;9.104;2022-07-10T12:02:54;2.72;;;0.82;;
8104;SDS011;4095;48.942;9.104;2022-07-10T12:05:37;3.03;;;1.13;;
8104;SDS011;4095;48.942;9.104;2022-07-10T12:08:03;1.48;;;0.82;;
8104;SDS011;4095;48.942;9.104;2022-07-10T12:10:31;1.88;;;1.00;;
8104;SDS011;4095;48.942;9.104;2022-07-10T12:13:08;1.80;;;0.90;;
8104;SDS011;4095;48.942;9.104;2022-07-10T12:18:06;2.50;;;0.90;;
8104;SDS011;4095;48.942;9.104;2022-07-10T12:20:33;2.08;;;1.13;;
8104;SDS011;4095;48.942;9.104;2022-07-10T12:22:59;2.28;;;0.88;;
8104;SDS011;4095;48.942;9.104;2022-07-10T12:25:25;1.40;;;1.02;;
8104;SDS011;4095;48.942;9.104;2022-07-10T12:27:55;2.50;;;1.10;;
8104;SDS011;4095;48.942;9.104;2022-07-10T12:30:22;3.55;;;1.40;;
8104;SDS011;4095;48.942;9.104;2022-07-10T12:32:48;2.58;;;2.25;;
8104;SDS011;4095;48.942;9.104;2022-07-10T12:35:13;3.20;;;1.35;;
8104;SDS011;4095;48.942;9.104;2022-07-10T12:37:48;1.88;;;0.90;;
8104;SDS011;4095;48.942;9.104;2022-07-10T12:40:30;0.82;;;0.70;;
8104;SDS011;4095;48.942;9.104;2022-07-10T12:43:03;4.13;;;1.20;;
8104;SDS011;4095;48.942;9.104;2022-07-10T12:45:30;2.35;;;1.25;;
8104;SDS011;4095;48.942;9.104;2022-07-10T12:47:55;3.20;;;1.30;;
8104;SDS011;4095;48.942;9.104;2022-07-10T12:50:22;1.95;;;0.93;;
8104;SDS011;4095;48.942;9.104;2022-07-10T12:52:50;3.22;;;1.00;;
8104;SDS011;4095;48.942;9.104;2022-07-10T12:55:37;3.20;;;0.82;;
8104;SDS011;4095;48.942;9.104;2022-07-10T12:58:05;1.70;;;0.80;;
8104;SDS011;4095;48.942;9.104;2022-07-10T13:00:35;2.95;;;1.20;;
8104;SDS011;4095;48.942;9.104;2022-07-10T13:03:02;2.30;;;0.80;;
8104;SDS011;4095;48.942;9.104;2022-07-10T13:05:35;2.80;;;1.02;;
8104;SDS011;4095;48.942;9.104;2022-07-10T13:08:05;1.70;;;0.88;;
8104;SDS011;4095;48.942;9.104;2022-07-10T13:10:40;2.17;;;0.90;;
8104;SDS011;4095;48.942;9.104;2022-07-10T13:13:06;4.00;;;1.10;;
8104;SDS011;4095;48.942;9.104;2022-07-10T13:15:32;2.97;;;0.98;;
8104;SDS011;4095;48.942;9.104;2022-07-10T13:18:04;1.95;;;0.75;;
8104;SDS011;4095;48.942;9.104;2022-07-10T13:20:30;1.67;;;0.90;;
8104;SDS011;4095;48.942;9.104;2022-07-10T13:22:56;1.77;;;0.88;;
8104;SDS011;4095;48.942;9.104;2022-07-10T13:25:22;1.80;;;0.93;;
8104;SDS011;4095;48.942;9.104;2022-07-10T13:27:47;1.98;;;0.85;;
8104;SDS011;4095;48.942;9.104;2022-07-10T13:30:13;2.67;;;0.95;;
8104;SDS011;4095;48.942;9.104;2022-07-10T13:32:38;2.63;;;1.10;;
8104;SDS011;4095;48.942;9.104;2022-07-10T13:35:04;1.48;;;0.80;;
8104;SDS011;4095;48.942;9.104;2022-07-10T13:37:30;2.45;;;0.80;;
8104;SDS011;4095;48.942;9.104;2022-07-10T13:39:56;1.58;;;0.75;;
8104;SDS011;4095;48.942;9.104;2022-07-10T13:42:22;2.75;;;0.90;;
8104;SDS011;4095;48.942;9.104;2022-07-10T13:44:47;2.35;;;1.20;;
8104;SDS011;4095;48.942;9.104;2022-07-10T13:47:13;1.40;;;0.90;;
8104;SDS011;4095;48.942;9.104;2022-07-10T13:49:39;2.67;;;1.00;;
8104;SDS011;4095;48.942;9.104;2022-07-10T13:52:04;2.08;;;0.73;;
8104;SDS011;4095;48.942;9.104;2022-07-10T13:54:30;2.25;;;1.23;;
8104;SDS011;4095;48.942;9.104;2022-07-10T13:56:56;3.17;;;0.93;;
8104;SDS011;4095;48.942;9.104;2022-07-10T13:59:21;2.25;;;1.00;;
8104;SDS011;4095;48.942;9.104;2022-07-10T14:01:47;1.95;;;0.93;;
8104;SDS011;4095;48.942;9.104;2022-07-10T14:04:13;1.80;;;0.90;;
8104;SDS011;4095;48.942;9.104;2022-07-10T14:06:39;1.67;;;0.95;;
8104;SDS011;4095;48.942;9.104;2022-07-10T14:09:04;1.90;;;0.88;;
8104;SDS011;4095;48.942;9.104;2022-07-10T14:11:30;2.75;;;1.10;;
8104;SDS011;4095;48.942;9.104;2022-07-10T14:13:56;1.35;;;0.80;;
8104;SDS011;4095;48.942;9.104;2022-07-10T14:16:23;2.25;;;0.80;;
8104;SDS011;4095;48.942;9.104;2022-07-10T14:18:48;1.30;;;0.80;;
8104;SDS011;4095;48.942;9.104;2022-07-10T14:21:14;2.28;;;1.17;;
8104;SDS011;4095;48.942;9.104;2022-07-10T14:23:40;2.35;;;1.00;;
8104;SDS011;4095;48.942;9.104;2022-07-10T14:26:09;2.10;;;1.00;;
8104;SDS011;4095;48.942;9.104;2022-07-10T14:28:35;2.17;;;1.02;;
8104;SDS011;4095;48.942;9.104;2022-07-10T14:31:01;2.95;;;1.17;;
8104;SDS011;4095;48.942;9.104;2022-07-10T14:33:29;2.92;;;1.05;;
8104;SDS011;4095;48.942;9.104;2022-07-10T14:35:58;2.08;;;0.95;;
8104;SDS011;4095;48.942;9.104;2022-07-10T14:38:24;3.30;;;1.08;;
8104;SDS011;4095;48.942;9.104;2022-07-10T14:40:49;3.42;;;1.27;;
8104;SDS011;4095;48.942;9.104;2022-07-10T14:43:17;2.72;;;1.50;;
8104;SDS011;4095;48.942;9.104;2022-07-10T14:45:44;4.40;;;1.73;;
8104;SDS011;4095;48.942;9.104;2022-07-10T14:48:10;1.67;;;0.90;;
8104;SDS011;4095;48.942;9.104;2022-07-10T14:50:36;2.03;;;1.00;;
8104;SDS011;4095;48.942;9.104;2022-07-10T14:53:02;3.55;;;1.13;;
8104;SDS011;4095;48.942;9.104;2022-07-10T14:55:27;2.15;;;1.00;;
8104;SDS011;4095;48.942;9.104;2022-07-10T14:57:53;2.17;;;0.88;;
8104;SDS011;4095;48.942;9.104;2022-07-10T15:00:18;2.67;;;0.95;;
8104;SDS011;4095;48.942;9.104;2022-07-10T15:02:45;1.98;;;1.05;;
8104;SDS011;4095;48.942;9.104;2022-07-10T15:05:10;1.42;;;0.70;;
8104;SDS011;4095;48.942;9.104;2022-07-10T15:07:36;1.15;;;0.82;;
8104;SDS011;4095;48.942;9.104;2022-07-10T15:10:02;2.20;;;1.00;;
8104;SDS011;4095;48.942;9.104;2022-07-10T15:12:28;2.25;;;0.80;;
8104;SDS011;4095;48.942;9.104;2022-07-10T15:14:56;3.10;;;1.30;;
8104;SDS011;4095;48.942;9.104;2022-07-10T15:17:22;2.88;;;1.10;;
8104;SDS011;4095;48.942;9.104;2022-07-10T15:19:47;4.70;;;1.05;;
8104;SDS011;4095;48.942;9.104;2022-07-10T15:22:13;1.25;;;0.80;;
8104;SDS011;4095;48.942;9.104;2022-07-10T15:24:39;1.23;;;0.80;;
8104;SDS011;4095;48.942;9.104;2022-07-10T15:27:06;1.75;;;0.93;;
8104;SDS011;4095;48.942;9.104;2022-07-10T15:29:31;2.08;;;1.02;;
8104;SDS011;4095;48.942;9.104;2022-07-10T15:31:57;1.52;;;0.70;;
8104;SDS011;4095;48.942;9.104;2022-07-10T15:34:23;1.92;;;0.85;;
8104;SDS011;4095;48.942;9.104;2022-07-10T15:36:48;1.65;;;1.05;;
8104;SDS011;4095;48.942;9.104;2022-07-10T15:39:14;0.80;;;0.80;;
8104;SDS011;4095;48.942;9.104;2022-07-10T15:41:40;2.03;;;0.88;;
8104;SDS011;4095;48.942;9.104;2022-07-10T15:44:10;3.40;;;1.10;;
8104;SDS011;4095;48.942;9.104;2022-07-10T15:46:36;1.60;;;0.90;;
8104;SDS011;4095;48.942;9.104;2022-07-10T15:49:01;3.10;;;1.00;;